Time;durP1;ratioP1;P1;durP2;ratioP2;P2;SDS_P1;SDS_P2;PMS_P1;PMS_P2;Temp;Humidity;BMP_temperature;BMP_pressure;BME280_temperature;BME280_humidity;BME280_pressure;Samples;Min_cycle;Max_cycle;Signal;HPM_P1;HPM_P2
2022/02/14 00:00:03;;;;;;;6.28;4.47;;;;;;;;;;2065137;28;20185;-60
2022/02/14 00:01:12;;;;;;;5.63;4.57;;;;;;;;;;2062323;28;20186;-63
2022/02/14 00:02:13;;;;;;;5.63;4.40;;;;;;;;;;2068201;28;20652;-63
2022/02/14 00:03:13;;;;;;;5.72;4.55;;;;;;;;;;2067605;28;20209;-63
2022/02/14 00:04:13;;;;;;;6.85;4.18;;;;;;;;;;2055312;28;20202;-62
2022/02/14 00:05:14;;;;;;;7.78;4.97;;;;;;;;;;2056483;28;20205;-63
2022/02/14 00:06:14;;;;;;;4.78;4.22;;;;;;;;;;2068983;28;20614;-63
2022/02/14 00:07:14;;;;;;;4.40;4.00;;;;;;;;;;2065858;28;20623;-62
2022/02/14 00:08:16;;;;;;;4.53;4.20;;;;;;;;;;2069001;28;20664;-63
2022/02/14 00:09:16;;;;;;;5.20;4.47;;;;;;;;;;2064543;28;20257;-61
2022/02/14 00:10:16;;;;;;;4.60;3.97;;;;;;;;;;2070416;28;20185;-63
2022/02/14 00:11:17;;;;;;;6.28;4.35;;;;;;;;;;2064985;28;20198;-60
2022/02/14 00:12:17;;;;;;;4.95;4.47;;;;;;;;;;2069291;28;20181;-63
2022/02/14 00:13:17;;;;;;;4.85;4.35;;;;;;;;;;2066549;28;20185;-63
2022/02/14 00:14:18;;;;;;;5.57;4.57;;;;;;;;;;2063051;28;20198;-63
2022/02/14 00:15:18;;;;;;;4.57;4.28;;;;;;;;;;2068369;28;20686;-63
2022/02/14 00:16:19;;;;;;;5.13;3.72;;;;;;;;;;2065935;28;20178;-63
2022/02/14 00:17:20;;;;;;;5.90;4.40;;;;;;;;;;2063234;28;20184;-63
2022/02/14 00:18:22;;;;;;;6.97;4.80;;;;;;;;;;2064420;28;20280;-65
2022/02/14 00:19:22;;;;;;;5.75;4.43;;;;;;;;;;2070196;28;20169;-63
2022/02/14 00:20:23;;;;;;;5.18;4.03;;;;;;;;;;2061860;28;20188;-63
2022/02/14 00:21:23;;;;;;;5.68;4.10;;;;;;;;;;2069496;28;20169;-63
2022/02/14 00:22:24;;;;;;;4.53;4.00;;;;;;;;;;2065948;28;20645;-63
2022/02/14 00:23:24;;;;;;;5.00;4.50;;;;;;;;;;2054875;28;20202;-63
2022/02/14 00:24:24;;;;;;;6.95;3.92;;;;;;;;;;2055934;28;20221;-63
2022/02/14 00:25:25;;;;;;;4.38;3.97;;;;;;;;;;2058095;28;20194;-62
2022/02/14 00:26:25;;;;;;;6.22;4.63;;;;;;;;;;2070242;28;20180;-62
2022/02/14 00:27:25;;;;;;;7.88;4.57;;;;;;;;;;2065831;28;20212;-62
2022/02/14 00:28:25;;;;;;;6.55;4.53;;;;;;;;;;2063996;28;20180;-65
2022/02/14 00:29:26;;;;;;;8.43;4.50;;;;;;;;;;2064710;28;20169;-62
2022/02/14 00:30:30;;;;;;;6.32;4.35;;;;;;;;;;2058794;28;20666;-63
2022/02/14 00:31:31;;;;;;;6.00;4.20;;;;;;;;;;2070027;28;20172;-63
2022/02/14 00:32:31;;;;;;;5.32;4.68;;;;;;;;;;2059444;28;20681;-63
2022/02/14 00:33:31;;;;;;;4.88;4.40;;;;;;;;;;2064921;28;20257;-63
2022/02/14 00:34:31;;;;;;;6.28;4.38;;;;;;;;;;2064173;28;20209;-63
2022/02/14 00:35:31;;;;;;;6.07;4.72;;;;;;;;;;2062634;28;20355;-60
2022/02/14 00:36:32;;;;;;;6.55;4.57;;;;;;;;;;2062964;28;20184;-63
2022/02/14 00:37:32;;;;;;;5.60;3.88;;;;;;;;;;2062410;28;20562;-63
2022/02/14 00:38:32;;;;;;;7.63;4.57;;;;;;;;;;2072212;28;20252;-63
2022/02/14 00:39:34;;;;;;;6.03;4.07;;;;;;;;;;2061910;28;20236;-63
2022/02/14 00:40:35;;;;;;;4.47;3.85;;;;;;;;;;2064858;28;20583;-63
2022/02/14 00:41:36;;;;;;;5.05;4.20;;;;;;;;;;2062597;28;20181;-62
2022/02/14 00:42:36;;;;;;;7.32;4.45;;;;;;;;;;2064314;28;20666;-63
2022/02/14 00:43:36;;;;;;;5.07;3.85;;;;;;;;;;2065463;28;20194;-63
2022/02/14 00:44:37;;;;;;;4.88;4.15;;;;;;;;;;2059083;28;20265;-61
2022/02/14 00:45:37;;;;;;;7.53;4.63;;;;;;;;;;2064946;28;20177;-63
2022/02/14 00:46:37;;;;;;;5.05;3.92;;;;;;;;;;2072568;28;20165;-63
2022/02/14 00:47:37;;;;;;;7.53;3.95;;;;;;;;;;2061029;28;20220;-63
2022/02/14 00:48:38;;;;;;;6.82;4.47;;;;;;;;;;2057519;28;20589;-63
2022/02/14 00:49:38;;;;;;;5.78;4.28;;;;;;;;;;2067092;28;20181;-63
2022/02/14 00:50:38;;;;;;;4.35;4.05;;;;;;;;;;2056555;28;20209;-63
2022/02/14 00:51:39;;;;;;;4.18;3.88;;;;;;;;;;2064275;28;20177;-63
2022/02/14 00:52:40;;;;;;;5.30;4.30;;;;;;;;;;2062028;28;20185;-62
2022/02/14 00:53:41;;;;;;;5.75;4.28;;;;;;;;;;2058357;28;20270;-63
2022/02/14 00:54:42;;;;;;;6.88;4.18;;;;;;;;;;2060626;28;20209;-63
2022/02/14 00:55:43;;;;;;;5.43;3.90;;;;;;;;;;2059854;28;20587;-63
2022/02/14 00:56:43;;;;;;;4.35;3.95;;;;;;;;;;2072036;28;20177;-61
2022/02/14 00:57:43;;;;;;;5.20;4.07;;;;;;;;;;2058653;28;20312;-62
2022/02/14 00:58:44;;;;;;;5.15;4.40;;;;;;;;;;2064388;28;20181;-61
2022/02/14 00:59:44;;;;;;;4.50;3.72;;;;;;;;;;2065395;28;20265;-63
2022/02/14 01:00:45;;;;;;;4.70;4.30;;;;;;;;;;2070471;28;20216;-60
2022/02/14 01:01:46;;;;;;;5.32;3.78;;;;;;;;;;2059505;28;20651;-62
2022/02/14 01:02:46;;;;;;;7.32;3.88;;;;;;;;;;2070877;28;20165;-62
2022/02/14 01:03:46;;;;;;;6.45;4.20;;;;;;;;;;2057013;28;20241;-63
2022/02/14 01:04:46;;;;;;;5.03;3.92;;;;;;;;;;2056834;28;20181;-63
2022/02/14 01:05:47;;;;;;;9.00;4.30;;;;;;;;;;2057171;28;20163;-62
2022/02/14 01:06:47;;;;;;;7.30;4.25;;;;;;;;;;2063596;28;20178;-62
2022/02/14 01:07:47;;;;;;;4.18;3.72;;;;;;;;;;2057761;28;20172;-58
2022/02/14 01:08:47;;;;;;;4.72;4.32;;;;;;;;;;2066033;28;20162;-63
2022/02/14 01:09:48;;;;;;;4.20;3.88;;;;;;;;;;2069985;28;20234;-63
2022/02/14 01:10:48;;;;;;;4.55;3.55;;;;;;;;;;2058623;28;20277;-62
2022/02/14 01:11:48;;;;;;;9.18;4.63;;;;;;;;;;2065816;28;20169;-62
2022/02/14 01:12:49;;;;;;;4.10;3.63;;;;;;;;;;2067916;28;20186;-63
2022/02/14 01:13:49;;;;;;;4.18;3.78;;;;;;;;;;2066224;28;20201;-63
2022/02/14 01:14:50;;;;;;;3.75;3.50;;;;;;;;;;2064909;28;20184;-62
2022/02/14 01:15:50;;;;;;;4.05;3.65;;;;;;;;;;2058677;28;20181;-63
2022/02/14 01:16:51;;;;;;;4.78;4.00;;;;;;;;;;2058095;28;20212;-62
2022/02/14 01:17:51;;;;;;;5.13;4.03;;;;;;;;;;2066258;28;20232;-62
2022/02/14 01:18:51;;;;;;;5.47;3.92;;;;;;;;;;2070726;28;20176;-61
2022/02/14 01:19:51;;;;;;;4.05;3.75;;;;;;;;;;2063366;28;20209;-60
2022/02/14 01:20:52;;;;;;;5.30;3.78;;;;;;;;;;2064739;28;20461;-61
2022/02/14 01:21:52;;;;;;;4.25;3.72;;;;;;;;;;2064273;28;20217;-64
2022/02/14 01:22:52;;;;;;;6.20;4.10;;;;;;;;;;2068414;28;20771;-62
2022/02/14 01:23:53;;;;;;;7.32;4.13;;;;;;;;;;2058429;28;20186;-61
2022/02/14 01:24:53;;;;;;;4.30;3.88;;;;;;;;;;2064577;28;20701;-62
2022/02/14 01:25:53;;;;;;;4.43;3.70;;;;;;;;;;2063207;28;20185;-62
2022/02/14 01:26:54;;;;;;;4.35;3.95;;;;;;;;;;2060871;28;20177;-62
2022/02/14 01:27:54;;;;;;;5.43;4.20;;;;;;;;;;2066485;28;20182;-62
2022/02/14 01:28:54;;;;;;;6.97;4.30;;;;;;;;;;2063640;28;20244;-62
2022/02/14 01:29:55;;;;;;;4.18;3.83;;;;;;;;;;2063250;28;20555;-63
2022/02/14 01:30:55;;;;;;;5.70;4.03;;;;;;;;;;2062453;28;20578;-62
2022/02/14 01:31:55;;;;;;;4.50;3.63;;;;;;;;;;2070266;28;20265;-62
2022/02/14 01:32:58;;;;;;;4.78;3.53;;;;;;;;;;2065767;28;20183;-62
2022/02/14 01:33:59;;;;;;;5.55;3.80;;;;;;;;;;2065570;28;20268;-58
2022/02/14 01:34:59;;;;;;;5.95;4.32;;;;;;;;;;2061647;28;20178;-61
2022/02/14 01:36:00;;;;;;;5.82;3.70;;;;;;;;;;2062202;28;20230;-62
2022/02/14 01:37:00;;;;;;;3.88;3.58;;;;;;;;;;2065978;28;20200;-62
2022/02/14 01:38:01;;;;;;;6.95;3.65;;;;;;;;;;2067701;28;20225;-62
2022/02/14 01:39:02;;;;;;;5.05;3.47;;;;;;;;;;2062686;28;20706;-62
2022/02/14 01:40:02;;;;;;;5.70;3.92;;;;;;;;;;2062545;28;20185;-62
2022/02/14 01:41:03;;;;;;;6.43;4.00;;;;;;;;;;2067102;28;20260;-62
2022/02/14 01:42:03;;;;;;;8.10;4.10;;;;;;;;;;2067316;28;20228;-62
2022/02/14 01:43:04;;;;;;;6.47;3.80;;;;;;;;;;2060250;28;20217;-61
2022/02/14 01:44:08;;;;;;;8.45;3.97;;;;;;;;;;2063767;28;20206;-61
2022/02/14 01:45:10;;;;;;;7.05;4.20;;;;;;;;;;2065980;28;20169;-62
2022/02/14 01:46:10;;;;;;;6.90;4.03;;;;;;;;;;2065849;28;20179;-62
2022/02/14 01:47:12;;;;;;;5.97;3.80;;;;;;;;;;2069366;28;20173;-57
2022/02/14 01:48:13;;;;;;;6.70;4.10;;;;;;;;;;2067261;28;20312;-60
2022/02/14 01:49:13;;;;;;;5.47;4.38;;;;;;;;;;2063268;28;20240;-62
2022/02/14 01:50:16;;;;;;;6.13;3.55;;;;;;;;;;2061968;28;20182;-62
2022/02/14 01:51:16;;;;;;;5.57;3.88;;;;;;;;;;2060447;28;20170;-59
2022/02/14 01:52:16;;;;;;;6.00;4.07;;;;;;;;;;2061787;28;20527;-61
2022/02/14 01:53:17;;;;;;;9.77;4.05;;;;;;;;;;2047276;28;20187;-60
2022/02/14 01:54:18;;;;;;;6.07;3.72;;;;;;;;;;2051134;28;20852;-62
2022/02/14 01:55:18;;;;;;;4.45;3.95;;;;;;;;;;2062477;28;20217;-61
2022/02/14 01:56:18;;;;;;;7.82;4.38;;;;;;;;;;2062783;28;20810;-59
2022/02/14 01:57:19;;;;;;;4.55;4.13;;;;;;;;;;2062193;28;20245;-60
2022/02/14 01:58:20;;;;;;;7.80;4.32;;;;;;;;;;2065006;28;20169;-62
2022/02/14 01:59:20;;;;;;;6.40;4.20;;;;;;;;;;2062466;28;20600;-61
2022/02/14 02:00:21;;;;;;;4.40;4.00;;;;;;;;;;2061280;28;20619;-63
2022/02/14 02:01:22;;;;;;;5.80;4.18;;;;;;;;;;2057222;28;20182;-62
2022/02/14 02:02:22;;;;;;;6.10;3.80;;;;;;;;;;2070660;28;20235;-60
2022/02/14 02:03:24;;;;;;;8.63;3.70;;;;;;;;;;2062926;28;20209;-61
2022/02/14 02:04:25;;;;;;;8.80;3.95;;;;;;;;;;2069264;28;20189;-63
2022/02/14 02:05:25;;;;;;;4.53;4.10;;;;;;;;;;2061332;28;20182;-61
2022/02/14 02:06:26;;;;;;;4.88;3.30;;;;;;;;;;2069897;28;20279;-62
2022/02/14 02:07:27;;;;;;;3.95;3.50;;;;;;;;;;2056742;28;20534;-62
2022/02/14 02:08:27;;;;;;;4.43;3.88;;;;;;;;;;2051378;28;20275;-62
2022/02/14 02:09:28;;;;;;;5.25;3.33;;;;;;;;;;2058754;28;20201;-63
2022/02/14 02:10:28;;;;;;;6.10;4.05;;;;;;;;;;2058384;28;20174;-63
2022/02/14 02:12:51;;;;;;;6.20;4.22;;;;;;;;;;2060612;28;20165;-62
2022/02/14 02:13:51;;;;;;;7.68;4.25;;;;;;;;;;2059772;28;20192;-59
2022/02/14 02:14:56;;;;;;;4.57;4.10;;;;;;;;;;2068050;28;20179;-62
2022/02/14 02:15:56;;;;;;;6.32;4.03;;;;;;;;;;2070097;28;20195;-63
2022/02/14 02:16:56;;;;;;;5.50;4.28;;;;;;;;;;2062215;28;20182;-60
2022/02/14 02:18:00;;;;;;;6.68;3.90;;;;;;;;;;2058175;28;20583;-63
2022/02/14 02:19:00;;;;;;;5.20;3.85;;;;;;;;;;2060485;28;20177;-62
2022/02/14 02:20:01;;;;;;;6.22;4.43;;;;;;;;;;2059583;28;20653;-64
2022/02/14 02:21:01;;;;;;;5.57;4.35;;;;;;;;;;2064173;28;20610;-62
2022/02/14 02:22:02;;;;;;;7.72;4.22;;;;;;;;;;2063479;28;20192;-62
2022/02/14 02:23:03;;;;;;;6.85;4.45;;;;;;;;;;2047798;28;20636;-62
2022/02/14 02:24:03;;;;;;;4.75;4.22;;;;;;;;;;2051485;28;20186;-61
2022/02/14 02:25:04;;;;;;;6.75;3.92;;;;;;;;;;2062783;28;20173;-61
2022/02/14 02:26:04;;;;;;;5.75;4.05;;;;;;;;;;2064871;28;20191;-61
2022/02/14 02:27:05;;;;;;;8.32;4.53;;;;;;;;;;2068792;28;20235;-61
2022/02/14 02:28:05;;;;;;;5.88;3.80;;;;;;;;;;2067426;28;20173;-62
2022/02/14 02:29:05;;;;;;;4.95;3.90;;;;;;;;;;2065063;28;20166;-61
2022/02/14 02:30:08;;;;;;;6.35;4.25;;;;;;;;;;2062525;28;20236;-66
2022/02/14 02:31:08;;;;;;;5.78;4.15;;;;;;;;;;2060035;28;20596;-62
2022/02/14 02:32:09;;;;;;;6.43;3.75;;;;;;;;;;2065329;28;20173;-61
2022/02/14 02:33:10;;;;;;;5.05;3.88;;;;;;;;;;2067779;28;20220;-63
2022/02/14 02:34:10;;;;;;;5.93;4.25;;;;;;;;;;2063139;28;20260;-61
2022/02/14 02:35:11;;;;;;;5.03;3.95;;;;;;;;;;2062560;28;20591;-58
2022/02/14 02:36:11;;;;;;;5.63;4.00;;;;;;;;;;2065679;28;20681;-64
2022/02/14 02:37:12;;;;;;;9.68;4.15;;;;;;;;;;2068930;28;20247;-61
2022/02/14 02:38:13;;;;;;;5.40;3.75;;;;;;;;;;2064508;28;20185;-62
2022/02/14 02:39:13;;;;;;;4.30;3.45;;;;;;;;;;2061478;28;20665;-62
2022/02/14 02:40:13;;;;;;;6.75;4.25;;;;;;;;;;2058814;28;20182;-63
2022/02/14 02:41:14;;;;;;;6.85;4.03;;;;;;;;;;2066571;28;20440;-63
2022/02/14 02:42:15;;;;;;;4.47;3.95;;;;;;;;;;2065432;28;20177;-61
2022/02/14 02:43:17;;;;;;;8.60;4.57;;;;;;;;;;2063931;28;20284;-63
2022/02/14 02:44:17;;;;;;;4.50;4.10;;;;;;;;;;2065365;28;20701;-62
2022/02/14 02:45:17;;;;;;;5.75;4.28;;;;;;;;;;2069987;28;20181;-63
2022/02/14 02:46:18;;;;;;;5.80;3.60;;;;;;;;;;2063290;28;20230;-62
2022/02/14 02:47:19;;;;;;;5.60;3.90;;;;;;;;;;2068267;28;20535;-60
2022/02/14 02:48:19;;;;;;;6.97;3.80;;;;;;;;;;2066774;28;20515;-63
2022/02/14 02:49:21;;;;;;;5.28;4.03;;;;;;;;;;2062714;28;20216;-62
2022/02/14 02:50:21;;;;;;;5.32;3.78;;;;;;;;;;2070735;28;20165;-62
2022/02/14 02:51:21;;;;;;;6.65;4.20;;;;;;;;;;2065108;28;20723;-63
2022/02/14 02:52:21;;;;;;;5.80;4.05;;;;;;;;;;2065448;28;20178;-63
2022/02/14 02:53:22;;;;;;;5.20;4.15;;;;;;;;;;2059980;28;20208;-64
2022/02/14 02:54:23;;;;;;;4.25;3.95;;;;;;;;;;2062648;28;20210;-62
2022/02/14 02:55:23;;;;;;;7.07;4.30;;;;;;;;;;2068744;28;20220;-62
2022/02/14 02:56:23;;;;;;;5.63;4.03;;;;;;;;;;2066186;28;20170;-62
2022/02/14 02:57:24;;;;;;;7.28;4.63;;;;;;;;;;2064850;28;20216;-63
2022/02/14 02:58:24;;;;;;;4.50;4.10;;;;;;;;;;2074631;28;20244;-62
2022/02/14 02:59:26;;;;;;;5.05;3.47;;;;;;;;;;2065469;28;20167;-62
2022/02/14 03:00:26;;;;;;;7.63;3.92;;;;;;;;;;2072285;28;20674;-61
2022/02/14 03:01:26;;;;;;;6.05;4.10;;;;;;;;;;2068822;28;20189;-61
2022/02/14 03:02:27;;;;;;;4.90;3.78;;;;;;;;;;2071912;28;20234;-61
2022/02/14 03:03:27;;;;;;;5.40;3.85;;;;;;;;;;2064618;28;20202;-60
2022/02/14 03:04:27;;;;;;;6.43;4.32;;;;;;;;;;2063356;28;20185;-62
2022/02/14 03:05:28;;;;;;;4.93;4.03;;;;;;;;;;2062585;28;20170;-62
2022/02/14 03:06:28;;;;;;;6.68;3.85;;;;;;;;;;2068996;28;20220;-61
2022/02/14 03:07:29;;;;;;;3.92;3.53;;;;;;;;;;2066463;28;20185;-61
2022/02/14 03:08:29;;;;;;;5.97;4.15;;;;;;;;;;2071471;28;20173;-60
2022/02/14 03:09:29;;;;;;;5.13;3.80;;;;;;;;;;2062783;28;20238;-59
2022/02/14 03:10:30;;;;;;;4.32;3.88;;;;;;;;;;2069894;28;20211;-61
2022/02/14 03:11:31;;;;;;;5.30;4.00;;;;;;;;;;2066540;28;20519;-60
2022/02/14 03:12:31;;;;;;;5.00;3.80;;;;;;;;;;2064137;28;20666;-62
2022/02/14 03:13:31;;;;;;;4.57;3.97;;;;;;;;;;2064794;28;20183;-60
2022/02/14 03:14:32;;;;;;;6.35;3.72;;;;;;;;;;2070644;28;20201;-59
2022/02/14 03:15:32;;;;;;;5.55;3.70;;;;;;;;;;2064587;28;20208;-60
2022/02/14 03:16:33;;;;;;;9.70;4.00;;;;;;;;;;2065463;28;20845;-56
2022/02/14 03:17:33;;;;;;;6.75;4.35;;;;;;;;;;2059270;28;20178;-61
2022/02/14 03:18:34;;;;;;;4.80;3.50;;;;;;;;;;2066057;28;20197;-61
2022/02/14 03:19:34;;;;;;;5.55;4.10;;;;;;;;;;2058470;28;20202;-61
2022/02/14 03:20:36;;;;;;;7.88;4.00;;;;;;;;;;2065765;28;20169;-62
2022/02/14 03:21:36;;;;;;;5.65;4.10;;;;;;;;;;2060436;28;20185;-62
2022/02/14 03:22:37;;;;;;;6.50;3.97;;;;;;;;;;2059915;28;20827;-60
2022/02/14 03:23:37;;;;;;;4.97;3.80;;;;;;;;;;2068889;28;20205;-63
2022/02/14 03:24:38;;;;;;;5.25;3.85;;;;;;;;;;2074750;28;20232;-63
2022/02/14 03:25:38;;;;;;;9.20;4.10;;;;;;;;;;2076887;28;20248;-61
2022/02/14 03:26:38;;;;;;;6.47;4.13;;;;;;;;;;2067257;28;20247;-61
2022/02/14 03:27:39;;;;;;;5.90;3.65;;;;;;;;;;2067918;28;20692;-62
2022/02/14 03:28:39;;;;;;;7.95;4.20;;;;;;;;;;2066378;28;20170;-61
2022/02/14 03:29:39;;;;;;;5.68;4.15;;;;;;;;;;2065155;28;20197;-66
2022/02/14 03:30:40;;;;;;;8.63;4.03;;;;;;;;;;2065733;28;20670;-62
2022/02/14 03:31:40;;;;;;;6.18;4.05;;;;;;;;;;2061253;28;20635;-60
2022/02/14 03:32:41;;;;;;;7.75;4.35;;;;;;;;;;2057287;28;20270;-60
2022/02/14 03:33:41;;;;;;;3.95;3.58;;;;;;;;;;2059394;28;20202;-62
2022/02/14 03:34:42;;;;;;;5.28;3.88;;;;;;;;;;2081735;23;20205;-62
2022/02/14 03:35:42;;;;;;;5.32;3.65;;;;;;;;;;2055356;28;20677;-59
2022/02/14 03:36:42;;;;;;;4.82;3.97;;;;;;;;;;2057848;28;20191;-59
2022/02/14 03:37:42;;;;;;;5.93;3.90;;;;;;;;;;2056129;28;20182;-60
2022/02/14 03:38:43;;;;;;;8.85;4.07;;;;;;;;;;2055019;28;20181;-57
2022/02/14 03:39:43;;;;;;;7.95;4.47;;;;;;;;;;2053390;28;20213;-58
2022/02/14 03:40:44;;;;;;;6.45;4.30;;;;;;;;;;2050616;28;20186;-59
2022/02/14 03:41:44;;;;;;;5.50;3.90;;;;;;;;;;2058339;28;20182;-59
2022/02/14 03:42:44;;;;;;;4.32;3.88;;;;;;;;;;2064031;28;20185;-58
2022/02/14 03:43:45;;;;;;;4.65;3.90;;;;;;;;;;2056319;28;20277;-58
2022/02/14 03:44:45;;;;;;;6.35;4.05;;;;;;;;;;2053393;28;20600;-55
2022/02/14 03:45:45;;;;;;;6.30;4.10;;;;;;;;;;2050061;28;20527;-57
2022/02/14 03:46:45;;;;;;;7.00;3.50;;;;;;;;;;2055230;28;20611;-57
2022/02/14 03:47:46;;;;;;;5.35;4.00;;;;;;;;;;2050335;28;20190;-60
2022/02/14 03:48:46;;;;;;;9.63;4.63;;;;;;;;;;2052247;28;20210;-60
2022/02/14 03:49:46;;;;;;;6.75;4.07;;;;;;;;;;2049737;28;20167;-61
2022/02/14 03:50:46;;;;;;;6.10;3.85;;;;;;;;;;2051029;28;20186;-62
2022/02/14 03:51:47;;;;;;;4.88;4.18;;;;;;;;;;2049558;28;20279;-59
2022/02/14 03:52:47;;;;;;;4.90;3.63;;;;;;;;;;2047850;28;20194;-60
2022/02/14 03:53:48;;;;;;;6.43;4.20;;;;;;;;;;2050908;28;20568;-60
2022/02/14 03:54:48;;;;;;;7.68;4.10;;;;;;;;;;2055201;28;20269;-55
2022/02/14 03:55:48;;;;;;;6.35;3.78;;;;;;;;;;2051031;28;20353;-59
2022/02/14 03:56:48;;;;;;;5.47;4.10;;;;;;;;;;2055635;28;20182;-52
2022/02/14 03:57:51;;;;;;;4.43;3.70;;;;;;;;;;2051289;28;20186;-60
2022/02/14 03:58:52;;;;;;;5.30;4.07;;;;;;;;;;2055251;28;20626;-57
2022/02/14 03:59:52;;;;;;;3.70;3.40;;;;;;;;;;2051392;28;20274;-59
2022/02/14 04:00:52;;;;;;;4.68;3.55;;;;;;;;;;2054295;28;20866;-54
2022/02/14 04:01:53;;;;;;;9.07;4.30;;;;;;;;;;2043293;28;20183;-57
2022/02/14 04:02:53;;;;;;;6.05;4.22;;;;;;;;;;2051126;28;20179;-58
2022/02/14 04:03:53;;;;;;;6.57;4.13;;;;;;;;;;2053738;28;20728;-59
2022/02/14 04:04:55;;;;;;;5.20;4.03;;;;;;;;;;2054100;28;20268;-60
2022/02/14 04:05:56;;;;;;;9.23;4.78;;;;;;;;;;2047141;28;20348;-60
2022/02/14 04:06:56;;;;;;;5.60;4.20;;;;;;;;;;2055620;28;20170;-60
2022/02/14 04:07:58;;;;;;;6.30;4.07;;;;;;;;;;2051261;28;20244;-59
2022/02/14 04:08:59;;;;;;;5.93;4.00;;;;;;;;;;2051844;28;20262;-61
2022/02/14 04:09:59;;;;;;;7.35;4.20;;;;;;;;;;2049301;28;20182;-59
2022/02/14 04:11:00;;;;;;;6.43;4.32;;;;;;;;;;2048868;28;20171;-54
2022/02/14 04:12:00;;;;;;;5.68;3.83;;;;;;;;;;2052668;28;20190;-59
2022/02/14 04:13:00;;;;;;;4.22;3.85;;;;;;;;;;2054174;28;20187;-59
2022/02/14 04:14:00;;;;;;;4.68;3.60;;;;;;;;;;2052165;28;20731;-56
2022/02/14 04:15:01;;;;;;;5.68;4.30;;;;;;;;;;2053275;28;20226;-58
2022/02/14 04:16:01;;;;;;;5.88;4.18;;;;;;;;;;2052972;28;20694;-60
2022/02/14 04:17:02;;;;;;;5.97;3.85;;;;;;;;;;2053749;28;20183;-60
2022/02/14 04:18:02;;;;;;;6.65;4.07;;;;;;;;;;2052872;28;20178;-60
2022/02/14 04:19:03;;;;;;;13.40;4.93;;;;;;;;;;2053496;28;20286;-60
2022/02/14 04:20:03;;;;;;;7.43;4.38;;;;;;;;;;2053051;28;20178;-60
2022/02/14 04:21:04;;;;;;;5.05;3.60;;;;;;;;;;2053085;28;20194;-60
2022/02/14 04:22:04;;;;;;;7.93;4.30;;;;;;;;;;2049420;28;20549;-55
2022/02/14 04:23:04;;;;;;;8.93;4.15;;;;;;;;;;2052577;28;20193;-57
2022/02/14 04:24:04;;;;;;;7.43;4.60;;;;;;;;;;2054433;28;20187;-59
2022/02/14 04:25:05;;;;;;;3.90;3.45;;;;;;;;;;2052512;28;20194;-58
2022/02/14 04:26:05;;;;;;;5.10;3.95;;;;;;;;;;2049155;28;20194;-57
2022/02/14 04:27:05;;;;;;;7.03;4.53;;;;;;;;;;2053324;28;20725;-59
2022/02/14 04:28:06;;;;;;;6.63;3.83;;;;;;;;;;2054822;28;20170;-57
2022/02/14 04:29:06;;;;;;;5.80;3.75;;;;;;;;;;2055708;28;20186;-58
2022/02/14 04:30:07;;;;;;;5.22;3.63;;;;;;;;;;2057097;28;20174;-59
2022/02/14 04:31:07;;;;;;;6.03;3.53;;;;;;;;;;2051378;28;20595;-59
2022/02/14 04:32:07;;;;;;;4.75;4.22;;;;;;;;;;2050382;28;20170;-59
2022/02/14 04:33:08;;;;;;;5.80;3.90;;;;;;;;;;2054395;28;20182;-61
2022/02/14 04:34:08;;;;;;;7.13;4.28;;;;;;;;;;2053078;28;20163;-61
2022/02/14 04:35:09;;;;;;;9.45;4.32;;;;;;;;;;2048701;28;20225;-61
2022/02/14 04:36:12;;;;;;;4.05;3.63;;;;;;;;;;2050098;28;20573;-61
2022/02/14 04:37:12;;;;;;;3.50;3.03;;;;;;;;;;2050327;28;20189;-59
2022/02/14 04:38:12;;;;;;;4.55;3.97;;;;;;;;;;2051728;28;20250;-60
2022/02/14 04:39:13;;;;;;;6.50;3.80;;;;;;;;;;2047478;28;20214;-61
2022/02/14 04:40:13;;;;;;;7.45;4.15;;;;;;;;;;2050936;28;20279;-59
2022/02/14 04:41:14;;;;;;;4.63;3.83;;;;;;;;;;2049446;28;20179;-61
2022/02/14 04:42:14;;;;;;;6.15;3.83;;;;;;;;;;2055501;28;20206;-61
2022/02/14 04:43:16;;;;;;;6.25;4.03;;;;;;;;;;2050783;28;20227;-60
2022/02/14 04:44:16;;;;;;;4.10;3.80;;;;;;;;;;2045664;28;20181;-59
2022/02/14 04:45:16;;;;;;;6.65;3.97;;;;;;;;;;2047054;28;20202;-59
2022/02/14 04:46:18;;;;;;;5.22;4.05;;;;;;;;;;2050439;28;20211;-61
2022/02/14 04:47:18;;;;;;;6.97;3.80;;;;;;;;;;2050712;28;20616;-59
2022/02/14 04:48:19;;;;;;;8.15;4.80;;;;;;;;;;2056033;28;20178;-61
2022/02/14 04:49:19;;;;;;;4.78;4.03;;;;;;;;;;2055961;28;20194;-61
2022/02/14 04:50:19;;;;;;;7.10;4.10;;;;;;;;;;2051785;28;20175;-55
2022/02/14 04:51:20;;;;;;;7.03;4.00;;;;;;;;;;2052070;28;20211;-60
2022/02/14 04:52:20;;;;;;;5.95;4.22;;;;;;;;;;2056774;28;20162;-60
2022/02/14 04:53:20;;;;;;;6.25;3.90;;;;;;;;;;2054519;28;20183;-58
2022/02/14 04:54:20;;;;;;;7.38;3.53;;;;;;;;;;2050255;28;20186;-61
2022/02/14 04:55:21;;;;;;;5.65;3.83;;;;;;;;;;2051984;28;20226;-59
2022/02/14 04:56:21;;;;;;;4.15;3.50;;;;;;;;;;2051204;28;20210;-57
2022/02/14 04:57:22;;;;;;;4.50;3.88;;;;;;;;;;2045211;29;20190;-55
2022/02/14 04:58:22;;;;;;;6.47;4.18;;;;;;;;;;2043704;29;20191;-58
2022/02/14 04:59:22;;;;;;;6.68;4.15;;;;;;;;;;2058722;28;20217;-56
2022/02/14 05:00:23;;;;;;;7.38;4.28;;;;;;;;;;2052285;28;20187;-60
2022/02/14 05:01:23;;;;;;;5.00;4.30;;;;;;;;;;2057116;28;20643;-56
2022/02/14 05:02:23;;;;;;;5.93;4.18;;;;;;;;;;2051947;28;20201;-57
2022/02/14 05:03:24;;;;;;;7.15;4.30;;;;;;;;;;2057335;28;20194;-57
2022/02/14 05:04:25;;;;;;;5.00;4.15;;;;;;;;;;2057008;28;20166;-59
2022/02/14 05:05:25;;;;;;;5.82;4.00;;;;;;;;;;2048961;28;20192;-59
2022/02/14 05:06:25;;;;;;;6.30;3.85;;;;;;;;;;2057470;28;20190;-58
2022/02/14 05:07:25;;;;;;;5.45;4.18;;;;;;;;;;2058966;28;20198;-59
2022/02/14 05:08:26;;;;;;;5.50;4.63;;;;;;;;;;2060100;28;20204;-52
2022/02/14 05:09:26;;;;;;;6.18;3.65;;;;;;;;;;2058662;28;20613;-56
2022/02/14 05:10:27;;;;;;;4.10;3.47;;;;;;;;;;2051662;28;20691;-57
2022/02/14 05:11:27;;;;;;;5.70;3.50;;;;;;;;;;2050930;28;20163;-57
2022/02/14 05:12:27;;;;;;;4.38;3.90;;;;;;;;;;2051188;28;20632;-60
2022/02/14 05:13:28;;;;;;;5.28;4.13;;;;;;;;;;2050948;28;20187;-60
2022/02/14 05:14:29;;;;;;;4.95;4.07;;;;;;;;;;2050630;29;20183;-60
2022/02/14 05:15:29;;;;;;;8.23;3.80;;;;;;;;;;2049178;28;20889;-58
2022/02/14 05:16:29;;;;;;;8.68;4.25;;;;;;;;;;2050456;28;20179;-61
2022/02/14 05:17:30;;;;;;;5.28;4.60;;;;;;;;;;2050405;29;20194;-61
2022/02/14 05:18:30;;;;;;;5.38;4.32;;;;;;;;;;2050184;29;20222;-54
2022/02/14 05:19:30;;;;;;;4.57;4.07;;;;;;;;;;2057623;28;20198;-59
2022/02/14 05:20:31;;;;;;;6.20;3.67;;;;;;;;;;2058829;28;20174;-61
2022/02/14 05:21:31;;;;;;;5.10;4.03;;;;;;;;;;2049731;28;20179;-60
2022/02/14 05:22:31;;;;;;;5.75;3.75;;;;;;;;;;2054721;28;20179;-60
2022/02/14 05:23:31;;;;;;;4.32;3.90;;;;;;;;;;2053329;28;20218;-62
2022/02/14 05:24:32;;;;;;;6.82;3.72;;;;;;;;;;2048766;28;20546;-55
2022/02/14 05:25:32;;;;;;;4.40;4.00;;;;;;;;;;2051365;28;20190;-60
2022/02/14 05:26:32;;;;;;;9.55;4.20;;;;;;;;;;2056424;28;20185;-60
2022/02/14 05:27:33;;;;;;;5.40;3.88;;;;;;;;;;2048744;28;20179;-60
2022/02/14 05:28:33;;;;;;;5.28;3.92;;;;;;;;;;2049259;28;20846;-61
2022/02/14 05:29:33;;;;;;;4.53;4.00;;;;;;;;;;2047414;28;20187;-57
2022/02/14 05:30:34;;;;;;;4.25;3.85;;;;;;;;;;2048071;28;20171;-58
2022/02/14 05:31:34;;;;;;;5.38;4.05;;;;;;;;;;2046998;28;20211;-63
2022/02/14 05:32:34;;;;;;;5.28;4.25;;;;;;;;;;2056615;28;20213;-59
2022/02/14 05:33:34;;;;;;;6.68;4.32;;;;;;;;;;2047199;28;20193;-58
2022/02/14 05:34:35;;;;;;;7.10;3.88;;;;;;;;;;2055708;28;20186;-60
2022/02/14 05:35:35;;;;;;;5.78;3.90;;;;;;;;;;2049096;28;20219;-59
2022/02/14 05:36:36;;;;;;;5.20;3.70;;;;;;;;;;2063877;28;20205;-58
2022/02/14 05:37:37;;;;;;;4.47;3.80;;;;;;;;;;2048688;28;20233;-58
2022/02/14 05:38:37;;;;;;;5.90;3.90;;;;;;;;;;2056587;28;20255;-57
2022/02/14 05:39:37;;;;;;;3.80;3.42;;;;;;;;;;2050186;28;20183;-59
2022/02/14 05:40:38;;;;;;;9.40;4.30;;;;;;;;;;2056237;28;20414;-59
2022/02/14 05:41:38;;;;;;;4.85;3.67;;;;;;;;;;2049239;28;20181;-59
2022/02/14 05:42:38;;;;;;;4.18;3.88;;;;;;;;;;2056271;28;20191;-60
2022/02/14 05:43:38;;;;;;;6.93;3.80;;;;;;;;;;2048943;28;20207;-60
2022/02/14 05:44:39;;;;;;;6.85;3.95;;;;;;;;;;2055754;28;20213;-62
2022/02/14 05:45:39;;;;;;;6.22;3.25;;;;;;;;;;2048530;28;20257;-58
2022/02/14 05:46:40;;;;;;;4.28;3.80;;;;;;;;;;2048928;28;20178;-60
2022/02/14 05:47:40;;;;;;;5.88;4.32;;;;;;;;;;2048372;28;20847;-60
2022/02/14 05:48:41;;;;;;;4.97;3.95;;;;;;;;;;2049965;28;20179;-60
2022/02/14 05:49:41;;;;;;;9.40;4.00;;;;;;;;;;2055806;28;20171;-56
2022/02/14 05:50:42;;;;;;;5.63;3.50;;;;;;;;;;2048657;28;20273;-60
2022/02/14 05:51:42;;;;;;;4.70;3.55;;;;;;;;;;2054452;28;20170;-62
2022/02/14 05:52:44;;;;;;;6.63;4.45;;;;;;;;;;2039837;29;20215;-60
2022/02/14 05:53:44;;;;;;;8.48;4.32;;;;;;;;;;2039987;29;20176;-56
2022/02/14 05:54:44;;;;;;;3.72;3.08;;;;;;;;;;2042401;28;20199;-54
2022/02/14 05:55:44;;;;;;;8.38;4.53;;;;;;;;;;2055884;28;20237;-60
2022/02/14 05:56:45;;;;;;;5.55;4.10;;;;;;;;;;2048943;28;20179;-59
2022/02/14 05:57:45;;;;;;;4.68;4.00;;;;;;;;;;2048634;28;20179;-57
2022/02/14 05:58:45;;;;;;;5.10;3.95;;;;;;;;;;2047628;28;20227;-60
2022/02/14 05:59:45;;;;;;;5.18;4.10;;;;;;;;;;2055542;28;20623;-60
2022/02/14 06:00:46;;;;;;;4.25;3.88;;;;;;;;;;2051552;28;20210;-60
2022/02/14 06:01:46;;;;;;;4.18;3.85;;;;;;;;;;2056080;28;20174;-59
2022/02/14 06:02:46;;;;;;;5.28;3.60;;;;;;;;;;2055302;28;20174;-61
2022/02/14 06:03:46;;;;;;;4.43;4.00;;;;;;;;;;2049601;28;20312;-56